createdAt,value
2019-03-05T00:01:59.297Z,86.20
2019-03-05T00:04:29.307Z,85.60
2019-03-05T00:06:59.243Z,86.80
2019-03-05T00:09:29.119Z,86.30
2019-03-05T00:11:58.924Z,87.70
2019-03-05T00:14:28.846Z,86.80
2019-03-05T00:16:58.846Z,87.00
2019-03-05T00:19:28.719Z,87.60
2019-03-05T00:21:58.571Z,87.60
2019-03-05T00:25:13.742Z,86.40
2019-03-05T00:27:58.265Z,86.50
2019-03-05T00:30:57.813Z,86.70
2019-03-05T00:33:57.762Z,87.60
2019-03-05T00:37:15.993Z,87.60
2019-03-05T00:40:26.326Z,86.70
2019-03-05T00:43:16.952Z,86.20
2019-03-05T00:46:29.988Z,85.70
2019-03-05T00:49:52.105Z,86.20
2019-03-05T00:52:55.144Z,86.80
2019-03-05T00:56:05.448Z,87.60
2019-03-05T00:58:55.224Z,88.10
2019-03-05T01:02:16.579Z,86.80
2019-03-05T01:05:28.453Z,85.50
2019-03-05T01:07:58.382Z,83.80
2019-03-05T01:10:28.195Z,84.80
2019-03-05T01:12:58.180Z,84.80
2019-03-05T01:15:28.318Z,84.10
2019-03-05T01:17:58.256Z,85.10
2019-03-05T01:20:28.164Z,84.30
2019-03-05T01:22:59.029Z,84.80
2019-03-05T01:25:31.357Z,84.80
2019-03-05T01:28:01.373Z,85.20
2019-03-05T01:31:02.291Z,85.90
2019-03-05T01:33:38.595Z,87.00
2019-03-05T01:36:12.546Z,85.40
2019-03-05T01:38:52.830Z,87.00
2019-03-05T01:41:22.644Z,86.50
2019-03-05T01:43:52.595Z,83.90
2019-03-05T01:46:22.483Z,85.00
2019-03-05T01:48:52.350Z,85.40
2019-03-05T01:51:22.226Z,84.90
2019-03-05T01:53:52.118Z,86.00
2019-03-05T01:56:21.959Z,85.00
2019-03-05T01:58:51.801Z,86.20
2019-03-05T02:01:21.615Z,86.70
2019-03-05T02:03:51.445Z,86.30
2019-03-05T02:06:21.275Z,85.60
2019-03-05T02:08:51.043Z,85.40
2019-03-05T02:11:21.113Z,85.30
2019-03-05T02:13:50.914Z,85.20
2019-03-05T02:16:20.874Z,84.40
2019-03-05T02:18:50.756Z,85.10
2019-03-05T02:21:20.719Z,84.40
2019-03-05T02:24:42.487Z,83.40
2019-03-05T02:28:05.343Z,83.40
2019-03-05T02:31:12.560Z,83.50
2019-03-05T02:34:38.019Z,83.00
2019-03-05T02:38:05.503Z,83.60
2019-03-05T02:41:24.603Z,83.60
2019-03-05T02:44:48.885Z,83.50
2019-03-05T02:48:14.920Z,82.80
2019-03-05T02:51:40.135Z,82.90
2019-03-05T02:54:44.758Z,83.50
2019-03-05T02:57:13.037Z,83.50
2019-03-05T02:59:42.904Z,82.80
2019-03-05T03:02:31.017Z,83.20
2019-03-05T03:05:24.086Z,82.80
2019-03-05T03:07:53.968Z,83.50
2019-03-05T03:10:24.847Z,83.00
2019-03-05T03:12:54.870Z,82.50
2019-03-05T03:15:24.682Z,81.60
2019-03-05T03:17:54.552Z,81.50
2019-03-05T03:20:24.414Z,81.70
2019-03-05T03:22:54.477Z,80.80
2019-03-05T03:25:24.446Z,80.50
2019-03-05T03:27:54.241Z,81.40
2019-03-05T03:30:27.986Z,81.50
2019-03-05T03:32:58.180Z,82.30
2019-03-05T03:35:27.994Z,82.70
2019-03-05T03:37:57.869Z,82.40
2019-03-05T03:40:27.730Z,82.90
2019-03-05T03:42:57.882Z,83.00
2019-03-05T03:45:27.732Z,85.00
2019-03-05T03:47:57.601Z,84.00
2019-03-05T03:50:27.373Z,84.00
2019-03-05T03:52:57.247Z,85.00
2019-03-05T03:55:27.268Z,86.00
2019-03-05T03:57:57.142Z,86.30
2019-03-05T04:00:27.039Z,85.80
2019-03-05T04:02:56.998Z,85.30
2019-03-05T04:05:26.892Z,84.70
2019-03-05T04:07:56.766Z,85.40
2019-03-05T04:10:26.710Z,84.50
2019-03-05T04:12:56.576Z,84.80
2019-03-05T04:15:26.594Z,85.00
2019-03-05T04:17:56.560Z,85.00
2019-03-05T04:20:33.717Z,85.50
2019-03-05T04:23:03.790Z,85.90
2019-03-05T04:25:33.736Z,86.50
2019-03-05T04:28:03.751Z,87.10
2019-03-05T04:30:33.547Z,88.30
2019-03-05T04:33:03.929Z,87.10
2019-03-05T04:35:33.776Z,87.00
2019-03-05T04:38:03.572Z,86.30
2019-03-05T04:40:33.410Z,87.10
2019-03-05T04:43:03.345Z,87.00
2019-03-05T04:45:48.247Z,88.10
2019-03-05T04:48:18.075Z,87.50
2019-03-05T04:50:57.051Z,88.30
2019-03-05T04:53:26.924Z,88.20
2019-03-05T04:55:57.683Z,88.30
2019-03-05T04:58:27.730Z,88.00
2019-03-05T05:00:57.953Z,88.00
2019-03-05T05:03:28.074Z,87.60
2019-03-05T05:05:58.165Z,87.60
2019-03-05T05:08:28.449Z,87.90
2019-03-05T05:10:58.531Z,88.00
2019-03-05T05:13:28.409Z,88.00
2019-03-05T05:15:58.408Z,88.00
2019-03-05T05:18:28.314Z,87.30
2019-03-05T05:20:58.229Z,88.00
2019-03-05T05:23:28.060Z,87.40
2019-03-05T05:25:58.095Z,88.10
2019-03-05T05:28:27.938Z,88.90
2019-03-05T05:30:57.977Z,88.90
2019-03-05T05:33:28.160Z,89.30
2019-03-05T05:35:58.288Z,88.90
2019-03-05T05:38:28.304Z,87.20
2019-03-05T05:40:58.395Z,87.00
2019-03-05T05:43:30.032Z,85.70
2019-03-05T05:46:00.203Z,85.90
2019-03-05T05:48:30.306Z,84.60
2019-03-05T05:51:00.251Z,84.30
2019-03-05T05:53:30.427Z,84.60
2019-03-05T05:56:00.639Z,83.00
2019-03-05T05:58:30.891Z,83.60
2019-03-05T06:01:04.505Z,83.20
2019-03-05T06:03:35.166Z,83.50
2019-03-05T06:06:06.841Z,83.40
2019-03-05T06:08:36.890Z,83.00
2019-03-05T06:11:06.914Z,83.00
2019-03-05T06:13:36.918Z,82.80
2019-03-05T06:16:08.166Z,83.00
2019-03-05T06:18:38.184Z,83.00
2019-03-05T06:21:13.245Z,82.50
2019-03-05T06:23:46.813Z,81.90
2019-03-05T06:26:17.505Z,82.50
2019-03-05T06:28:47.467Z,82.90
2019-03-05T06:31:17.656Z,81.50
2019-03-05T06:33:47.903Z,80.30
2019-03-05T06:36:18.029Z,80.00
2019-03-05T06:38:52.315Z,79.50
2019-03-05T06:41:22.423Z,78.70
2019-03-05T06:43:52.701Z,78.50
2019-03-05T06:46:23.953Z,77.40
2019-03-05T06:48:54.388Z,77.20
2019-03-05T06:51:25.329Z,75.70
2019-03-05T06:53:56.065Z,75.40
2019-03-05T06:56:27.006Z,74.00
2019-03-05T06:59:18.149Z,73.70
2019-03-05T07:01:45.798Z,73.70
2019-03-05T07:04:15.679Z,73.70
2019-03-05T07:06:53.947Z,73.10
2019-03-05T07:10:14.242Z,73.70
2019-03-05T07:13:18.162Z,72.90
2019-03-05T07:16:34.382Z,72.50
2019-03-05T07:19:34.544Z,72.90
2019-03-05T07:22:40.231Z,72.30
2019-03-05T07:25:10.947Z,72.90
2019-03-05T07:27:55.666Z,72.70
2019-03-05T07:31:04.275Z,72.80
2019-03-05T07:33:42.512Z,72.10
2019-03-05T07:36:30.277Z,70.70
2019-03-05T07:39:32.904Z,69.80
2019-03-05T07:42:57.214Z,70.30
2019-03-05T07:45:52.667Z,67.90
2019-03-05T07:48:33.474Z,66.70
2019-03-05T07:51:11.533Z,65.80
2019-03-05T07:53:41.596Z,64.50
2019-03-05T07:56:11.621Z,63.80
2019-03-05T07:58:56.405Z,64.50
2019-03-05T08:01:26.847Z,64.70
2019-03-05T08:03:56.942Z,65.00
2019-03-05T08:06:26.984Z,64.80
2019-03-05T08:09:33.736Z,64.90
2019-03-05T08:12:57.595Z,64.70
2019-03-05T08:16:16.343Z,64.80
2019-03-05T08:18:46.878Z,65.00
2019-03-05T08:21:19.320Z,64.30
2019-03-05T08:23:49.448Z,64.40
2019-03-05T08:26:19.464Z,64.20
2019-03-05T08:28:49.534Z,63.80
2019-03-05T08:31:21.882Z,63.00
2019-03-05T08:33:56.751Z,63.10
2019-03-05T08:36:26.891Z,61.80
2019-03-05T08:38:56.993Z,61.90
2019-03-05T08:41:28.474Z,61.90
2019-03-05T08:44:00.324Z,60.60
2019-03-05T08:46:31.129Z,60.50
2019-03-05T08:49:05.687Z,59.80
2019-03-05T08:51:35.806Z,58.20
2019-03-05T08:54:07.787Z,58.80
2019-03-05T08:56:39.454Z,58.30
2019-03-05T08:59:12.840Z,57.80
2019-03-05T09:01:43.194Z,57.90
2019-03-05T09:04:16.697Z,56.70
2019-03-05T09:06:47.729Z,57.20
2019-03-05T09:09:18.149Z,57.60
2019-03-05T09:11:48.276Z,57.80
2019-03-05T09:14:19.060Z,56.20
2019-03-05T09:16:51.042Z,53.60
2019-03-05T09:19:21.228Z,52.40
2019-03-05T09:21:51.605Z,53.00
2019-03-05T09:24:33.491Z,53.80
2019-03-05T09:27:04.414Z,51.60
2019-03-05T09:29:34.765Z,52.50
2019-03-05T09:32:18.426Z,50.10
2019-03-05T09:34:50.144Z,49.90
2019-03-05T09:37:22.510Z,49.50
2019-03-05T09:39:57.030Z,48.40
2019-03-05T09:42:27.868Z,48.00
2019-03-05T09:44:59.878Z,48.10
2019-03-05T09:47:30.664Z,48.80
2019-03-05T09:50:03.267Z,49.20
2019-03-05T09:52:33.765Z,48.80
2019-03-05T09:55:04.934Z,47.80
2019-03-05T09:57:44.082Z,47.40
2019-03-05T10:00:23.773Z,47.60
2019-03-05T10:02:55.451Z,47.90
2019-03-05T10:05:25.536Z,45.40
2019-03-05T10:07:55.592Z,46.00
2019-03-05T10:10:25.677Z,46.30
2019-03-05T10:12:58.987Z,45.60
2019-03-05T10:15:28.272Z,45.60
2019-03-05T10:17:58.244Z,43.60
2019-03-05T10:20:28.315Z,45.60
2019-03-05T10:22:58.550Z,45.50
2019-03-05T10:25:28.628Z,44.10
2019-03-05T10:27:58.655Z,45.30
2019-03-05T10:30:28.841Z,44.70
2019-03-05T10:33:02.060Z,43.60
2019-03-05T10:35:32.333Z,43.40
2019-03-05T10:38:04.696Z,43.20
2019-03-05T10:40:37.644Z,42.80
2019-03-05T10:43:09.986Z,42.80
2019-03-05T10:45:43.288Z,42.40
2019-03-05T10:48:15.324Z,43.20
2019-03-05T10:50:46.229Z,43.10
2019-03-05T10:53:16.296Z,42.40
2019-03-05T10:55:46.276Z,42.10
2019-03-05T10:58:17.496Z,41.40
2019-03-05T11:00:47.729Z,41.90
2019-03-05T11:03:19.914Z,40.40
2019-03-05T11:05:50.074Z,42.00
2019-03-05T11:08:23.370Z,42.70
2019-03-05T11:10:54.861Z,42.20
2019-03-05T11:13:24.961Z,41.70
2019-03-05T11:15:56.281Z,42.10
2019-03-05T11:18:29.682Z,42.00
2019-03-05T11:20:58.296Z,41.10
2019-03-05T11:23:28.927Z,42.20
2019-03-05T11:26:11.228Z,41.80
2019-03-05T11:28:41.660Z,41.70
2019-03-05T11:31:14.757Z,42.10
2019-03-05T11:33:46.434Z,41.80
2019-03-05T11:36:18.164Z,41.30
2019-03-05T11:38:48.345Z,41.80
2019-03-05T11:41:18.301Z,41.40
2019-03-05T11:43:48.448Z,41.40
2019-03-05T11:46:21.145Z,42.30
2019-03-05T11:48:51.276Z,42.00
2019-03-05T11:51:21.421Z,42.40
2019-03-05T11:53:51.447Z,43.20
2019-03-05T11:56:21.680Z,42.90
2019-03-05T11:58:53.393Z,43.10
2019-03-05T12:01:47.242Z,42.80
2019-03-05T12:04:17.803Z,42.30
2019-03-05T12:06:47.800Z,42.70
2019-03-05T12:09:19.139Z,42.80
2019-03-05T12:11:49.475Z,42.20
2019-03-05T12:14:20.113Z,43.10
2019-03-05T12:16:50.537Z,43.60
2019-03-05T12:19:21.020Z,44.00
2019-03-05T12:21:51.433Z,43.10
2019-03-05T12:24:25.410Z,43.40
2019-03-05T12:26:56.307Z,44.30
2019-03-05T12:29:26.537Z,44.30
2019-03-05T12:31:56.664Z,43.80
2019-03-05T12:34:26.648Z,43.40
2019-03-05T12:36:56.612Z,45.00
2019-03-05T12:39:26.790Z,44.30
2019-03-05T12:41:58.193Z,44.30
2019-03-05T12:44:28.862Z,44.00
2019-03-05T12:47:00.976Z,44.00
2019-03-05T12:49:34.519Z,44.80
2019-03-05T12:52:05.192Z,44.80
2019-03-05T12:54:35.743Z,44.80
2019-03-05T12:57:05.884Z,45.50
2019-03-05T12:59:36.436Z,46.70
2019-03-05T13:02:07.318Z,46.70
2019-03-05T13:04:37.505Z,45.90
2019-03-05T13:07:08.009Z,46.10
2019-03-05T13:09:45.476Z,45.60
2019-03-05T13:12:15.827Z,46.30
2019-03-05T13:14:46.383Z,47.20
2019-03-05T13:17:16.449Z,47.40
2019-03-05T13:19:47.951Z,49.10
2019-03-05T13:22:19.127Z,49.60
2019-03-05T13:24:50.253Z,48.90
2019-03-05T13:27:22.871Z,49.80
2019-03-05T13:29:52.770Z,50.50
2019-03-05T13:32:23.903Z,50.20
2019-03-05T13:34:54.076Z,50.40
2019-03-05T13:37:28.495Z,51.60
2019-03-05T13:39:59.209Z,51.60
2019-03-05T13:42:33.299Z,52.20
2019-03-05T13:45:05.347Z,53.00
2019-03-05T13:47:41.680Z,54.60
2019-03-05T13:51:24.602Z,54.70
2019-03-05T13:54:49.706Z,54.70
2019-03-05T13:58:21.005Z,57.10
2019-03-05T14:00:51.288Z,57.70
2019-03-05T14:03:33.292Z,57.60
2019-03-05T14:06:50.618Z,62.20
2019-03-05T14:09:19.654Z,64.10
2019-03-05T14:11:51.353Z,64.70
2019-03-05T14:14:24.140Z,66.60
2019-03-05T14:17:20.973Z,66.30
2019-03-05T14:19:51.223Z,68.20
2019-03-05T14:22:21.766Z,67.60
2019-03-05T14:25:01.515Z,70.00
2019-03-05T14:27:23.927Z,72.30
2019-03-05T14:29:53.918Z,73.30
2019-03-05T14:32:24.252Z,73.30
2019-03-05T14:35:16.783Z,74.10
2019-03-05T14:37:46.929Z,75.60
2019-03-05T14:40:24.560Z,76.70
2019-03-05T14:42:54.838Z,76.80
2019-03-05T14:45:45.082Z,79.30
2019-03-05T14:48:15.595Z,81.00
2019-03-05T14:50:46.705Z,80.40
2019-03-05T14:53:39.229Z,80.00
2019-03-05T14:56:12.734Z,78.50
2019-03-05T14:58:45.310Z,79.90
2019-03-05T15:01:15.288Z,80.60
2019-03-05T15:03:50.651Z,81.00
2019-03-05T15:06:20.939Z,80.90
2019-03-05T15:08:51.809Z,82.40
2019-03-05T15:11:21.765Z,83.50
2019-03-05T15:13:51.712Z,82.50
2019-03-05T15:16:21.847Z,78.00
2019-03-05T15:18:51.981Z,79.00
2019-03-05T15:21:22.299Z,80.80
2019-03-05T15:23:52.234Z,83.30
2019-03-05T15:26:22.933Z,80.80
2019-03-05T15:28:56.517Z,83.10
2019-03-05T15:31:26.165Z,85.00
2019-03-05T15:33:56.309Z,86.50
2019-03-05T15:36:26.510Z,87.60
2019-03-05T15:38:59.712Z,88.20
2019-03-05T15:41:29.721Z,88.40
2019-03-05T15:43:59.746Z,89.20
2019-03-05T15:46:30.036Z,90.00
2019-03-05T15:49:00.943Z,90.00
2019-03-05T15:51:30.924Z,89.60
2019-03-05T15:54:01.807Z,89.00
2019-03-05T15:56:34.897Z,89.10
2019-03-05T15:59:04.853Z,90.80
2019-03-05T16:01:35.336Z,91.20
2019-03-05T16:04:05.586Z,90.90
2019-03-05T16:06:36.561Z,90.90
2019-03-05T16:09:16.232Z,89.80
2019-03-05T16:11:46.214Z,89.30
2019-03-05T16:14:16.186Z,90.70
2019-03-05T16:16:46.069Z,91.00
2019-03-05T16:19:17.948Z,91.90
2019-03-05T16:21:48.275Z,92.00
2019-03-05T16:24:18.404Z,92.20
2019-03-05T16:26:48.615Z,92.70
2019-03-05T16:29:20.156Z,92.20
2019-03-05T16:32:00.220Z,91.80
2019-03-05T16:34:36.475Z,92.70
2019-03-05T16:37:39.157Z,92.80
2019-03-05T16:40:30.799Z,93.10
2019-03-05T16:43:20.782Z,93.50
2019-03-05T16:46:00.820Z,93.40
2019-03-05T16:48:51.612Z,92.50
2019-03-05T16:51:37.829Z,92.20
2019-03-05T16:54:33.505Z,89.70
2019-03-05T16:57:41.033Z,92.00
2019-03-05T17:00:48.911Z,91.50
2019-03-05T17:03:35.172Z,91.40
2019-03-05T17:06:22.921Z,90.40
2019-03-05T17:09:08.455Z,90.40
2019-03-05T17:11:56.015Z,91.00
2019-03-05T17:14:26.863Z,90.80
2019-03-05T17:16:57.738Z,91.30
2019-03-05T17:19:27.928Z,90.70
2019-03-05T17:21:58.446Z,90.60
2019-03-05T17:24:28.729Z,90.00
2019-03-05T17:26:59.001Z,89.90
2019-03-05T17:29:29.773Z,91.50
2019-03-05T17:32:05.650Z,91.50
2019-03-05T17:34:35.836Z,91.40
2019-03-05T17:37:06.089Z,91.40
2019-03-05T17:39:36.071Z,91.40
2019-03-05T17:42:06.055Z,91.60
2019-03-05T17:44:35.977Z,90.80
2019-03-05T17:47:05.926Z,90.50
2019-03-05T17:49:35.958Z,90.70
2019-03-05T17:52:06.083Z,91.10
2019-03-05T17:54:36.157Z,90.40
2019-03-05T17:57:08.867Z,90.60
2019-03-05T17:59:38.205Z,90.60
2019-03-05T18:02:08.518Z,90.80
2019-03-05T18:04:38.437Z,91.20
2019-03-05T18:07:08.358Z,91.10
2019-03-05T18:09:38.549Z,90.70
2019-03-05T18:12:09.059Z,90.20
2019-03-05T18:14:39.018Z,90.10
2019-03-05T18:17:09.376Z,90.00
2019-03-05T18:19:39.299Z,90.00
2019-03-05T18:22:09.309Z,90.10
2019-03-05T18:24:39.460Z,90.70
2019-03-05T18:27:10.330Z,90.40
2019-03-05T18:29:41.057Z,90.60
2019-03-05T18:32:11.402Z,90.60
2019-03-05T18:34:43.460Z,91.00
2019-03-05T18:37:13.354Z,91.30
2019-03-05T18:40:17.244Z,91.00
2019-03-05T18:42:48.362Z,91.30
2019-03-05T18:45:20.766Z,92.10
2019-03-05T18:47:50.940Z,92.40
2019-03-05T18:50:21.466Z,92.50
2019-03-05T18:53:14.818Z,92.50
2019-03-05T18:55:44.891Z,92.80
2019-03-05T18:58:15.475Z,92.60
2019-03-05T19:08:39.307Z,93.20
2019-03-05T19:11:16.903Z,93.20
2019-03-05T19:14:43.816Z,92.80
2019-03-05T19:17:21.012Z,93.10
2019-03-05T19:21:18.828Z,92.90
2019-03-05T19:27:26.124Z,93.30
2019-03-05T19:30:03.358Z,93.30
2019-03-05T19:32:33.491Z,93.90
2019-03-05T19:35:06.764Z,93.30
2019-03-05T19:37:38.896Z,93.60
2019-03-05T19:40:15.133Z,93.70
2019-03-05T19:42:45.137Z,94.70
2019-03-05T19:45:20.193Z,95.40
2019-03-05T19:48:22.044Z,94.50
2019-03-05T19:54:56.632Z,93.90
2019-03-05T19:57:46.993Z,94.10
2019-03-05T20:00:39.364Z,93.90
2019-03-05T20:03:22.089Z,93.70
2019-03-05T20:05:52.645Z,93.70
2019-03-05T20:08:23.477Z,93.70
2019-03-05T20:10:54.169Z,93.90
2019-03-05T20:13:24.909Z,94.10
2019-03-05T20:15:56.445Z,94.30
2019-03-05T20:18:26.810Z,94.00
2019-03-05T20:20:57.476Z,94.50
2019-03-05T20:23:28.962Z,94.50
2019-03-05T20:26:02.051Z,94.60
2019-03-05T20:28:32.814Z,94.90
2019-03-05T20:31:03.623Z,94.60
2019-03-05T20:33:37.131Z,94.60
2019-03-05T20:36:19.525Z,94.60
2019-03-05T20:54:22.245Z,93.70
2019-03-05T20:57:34.668Z,94.00
2019-03-05T21:00:31.961Z,93.90
2019-03-05T21:03:24.789Z,93.70
2019-03-05T21:05:58.975Z,93.90
2019-03-05T21:08:39.733Z,94.40
2019-03-05T21:11:10.274Z,94.90
2019-03-05T21:13:41.069Z,95.20
2019-03-05T21:16:12.249Z,95.20
2019-03-05T21:18:42.645Z,94.50
2019-03-05T21:21:12.861Z,94.70
2019-03-05T21:23:52.461Z,95.00
2019-03-05T21:26:25.802Z,94.70
2019-03-05T21:28:56.591Z,94.70
2019-03-05T21:31:33.290Z,94.90
2019-03-05T21:34:03.921Z,95.20
2019-03-05T21:37:00.535Z,94.30
2019-03-05T21:39:38.353Z,94.30
2019-03-05T21:42:10.205Z,94.50
2019-03-05T21:45:37.612Z,94.10
2019-03-05T21:48:09.641Z,94.10
2019-03-05T21:50:48.736Z,94.70
2019-03-05T21:53:19.178Z,95.30
2019-03-05T21:55:49.611Z,95.30
2019-03-05T21:58:19.689Z,95.50
2019-03-05T22:00:49.953Z,95.30
2019-03-05T22:03:20.306Z,95.00
2019-03-05T22:05:51.049Z,94.90
2019-03-05T22:08:22.128Z,94.70
2019-03-05T22:10:52.718Z,94.90
2019-03-05T22:16:01.545Z,95.10
2019-03-05T22:18:32.526Z,95.30
2019-03-05T22:21:04.322Z,95.40
2019-03-05T22:23:37.855Z,95.40
2019-03-05T22:26:08.643Z,95.40
2019-03-05T22:28:39.518Z,95.40
2019-03-05T22:31:09.966Z,95.40
2019-03-05T22:33:41.304Z,95.20
2019-03-05T22:36:11.781Z,95.20
2019-03-05T22:38:42.363Z,95.40
2019-03-05T22:41:13.294Z,95.60
2019-03-05T22:43:44.686Z,95.50
2019-03-05T22:46:16.140Z,95.30
2019-03-05T22:48:49.019Z,95.20
2019-03-05T22:51:24.429Z,95.10
2019-03-05T22:53:55.302Z,95.40
2019-03-05T22:56:27.978Z,95.60
2019-03-05T22:58:58.562Z,95.80
2019-03-05T23:01:38.342Z,95.40
2019-03-05T23:04:12.876Z,95.30
2019-03-05T23:06:46.158Z,95.20
2019-03-05T23:09:26.177Z,95.40
2019-03-05T23:12:00.977Z,95.10
2019-03-05T23:14:32.847Z,95.40
2019-03-05T23:17:04.165Z,94.80
2019-03-05T23:19:35.062Z,95.10
2019-03-05T23:22:06.060Z,95.30
2019-03-05T23:24:39.433Z,95.10
2019-03-05T23:27:10.367Z,94.70
2019-03-05T23:29:45.020Z,94.90
2019-03-05T23:32:17.742Z,94.70
2019-03-05T23:35:15.927Z,94.70
2019-03-05T23:37:46.567Z,95.10
2019-03-05T23:40:17.550Z,95.20
2019-03-05T23:42:48.580Z,95.20
2019-03-05T23:45:19.691Z,95.30
2019-03-05T23:47:53.145Z,95.70
2019-03-05T23:50:23.881Z,95.40
2019-03-05T23:52:54.857Z,95.60
2019-03-05T23:55:26.622Z,95.70
2019-03-05T23:57:57.449Z,95.90
